Boulder, Montana
Current Conditions -  °F | °C
As of 4:53 PM on Saturday 22 Nov 2014 (Local Time) from KHLN Reporting Station
Few Clouds Few Clouds  
Wind Chill: 36°   Ceiling: Unl
Heat Index: 40°   Visibility: 10mi
Dew Point: 18°   Wind: 6mph
Humidity: 41%   Direction: NA
Pressure: 29.56"   Gusts: 20mph
Location:  46.24°N, 112.12°W
Report Text: KHLN 222353Z VRB05G17KT 10SM FEW055 04/M08 A2956 RMK AO2 PK WND 29036/2258 SLP032 T00441078 10094 20044 53034
Loading
Personal Weather Stations






























Interactive Weather Map New forecast layout! Learn more

10-Day Weather Forecast

Advertisements
Track Severe Weather on mobile